sensor_id;sensor_type;location;lat;lon;timestamp;temperature;humidity
78054;DHT22;67726;45.636;11.752;2024-02-16T00:00:06;7.40;99.90
78054;DHT22;67726;45.636;11.752;2024-02-16T00:02:32;7.40;99.90
78054;DHT22;67726;45.636;11.752;2024-02-16T00:04:58;7.30;99.90
78054;DHT22;67726;45.636;11.752;2024-02-16T00:07:24;7.20;99.90
78054;DHT22;67726;45.636;11.752;2024-02-16T00:09:50;7.10;99.90
78054;DHT22;67726;45.636;11.752;2024-02-16T00:12:15;6.90;99.90
78054;DHT22;67726;45.636;11.752;2024-02-16T00:14:42;6.90;99.90
78054;DHT22;67726;45.636;11.752;2024-02-16T00:17:08;6.90;99.90
78054;DHT22;67726;45.636;11.752;2024-02-16T00:19:35;6.70;99.90
78054;DHT22;67726;45.636;11.752;2024-02-16T00:22:01;6.70;99.90
78054;DHT22;67726;45.636;11.752;2024-02-16T00:24:27;6.70;99.90
78054;DHT22;67726;45.636;11.752;2024-02-16T00:26:53;6.60;99.90
78054;DHT22;67726;45.636;11.752;2024-02-16T00:29:18;6.60;99.90
78054;DHT22;67726;45.636;11.752;2024-02-16T00:31:47;6.50;99.90
78054;DHT22;67726;45.636;11.752;2024-02-16T00:34:12;6.60;99.90
78054;DHT22;67726;45.636;11.752;2024-02-16T00:36:38;6.60;99.90
78054;DHT22;67726;45.636;11.752;2024-02-16T00:39:04;6.60;99.90
78054;DHT22;67726;45.636;11.752;2024-02-16T00:41:29;6.60;99.90
78054;DHT22;67726;45.636;11.752;2024-02-16T00:43:55;6.30;99.90
78054;DHT22;67726;45.636;11.752;2024-02-16T00:46:22;6.30;99.90
78054;DHT22;67726;45.636;11.752;2024-02-16T00:48:49;6.50;99.90
78054;DHT22;67726;45.636;11.752;2024-02-16T00:51:15;6.40;99.90
78054;DHT22;67726;45.636;11.752;2024-02-16T00:53:41;6.40;99.90
78054;DHT22;67726;45.636;11.752;2024-02-16T00:56:07;6.20;99.90
78054;DHT22;67726;45.636;11.752;2024-02-16T00:58:34;6.50;99.90
78054;DHT22;67726;45.636;11.752;2024-02-16T01:01:00;6.30;99.90
78054;DHT22;67726;45.636;11.752;2024-02-16T01:03:25;6.30;99.90
78054;DHT22;67726;45.636;11.752;2024-02-16T01:05:52;6.30;99.90
78054;DHT22;67726;45.636;11.752;2024-02-16T01:08:18;6.50;99.90
78054;DHT22;67726;45.636;11.752;2024-02-16T01:10:44;6.30;99.90
78054;DHT22;67726;45.636;11.752;2024-02-16T01:13:10;6.40;99.90
78054;DHT22;67726;45.636;11.752;2024-02-16T01:15:36;6.40;99.90
78054;DHT22;67726;45.636;11.752;2024-02-16T01:18:03;6.40;99.90
78054;DHT22;67726;45.636;11.752;2024-02-16T01:20:29;6.30;99.90
78054;DHT22;67726;45.636;11.752;2024-02-16T01:22:57;6.30;99.90
78054;DHT22;67726;45.636;11.752;2024-02-16T01:25:22;6.40;99.90
78054;DHT22;67726;45.636;11.752;2024-02-16T01:27:48;6.30;99.90
78054;DHT22;67726;45.636;11.752;2024-02-16T01:30:13;6.40;99.90
78054;DHT22;67726;45.636;11.752;2024-02-16T01:32:41;6.40;99.90
78054;DHT22;67726;45.636;11.752;2024-02-16T01:35:07;6.20;99.90
78054;DHT22;67726;45.636;11.752;2024-02-16T01:37:33;6.50;99.90
78054;DHT22;67726;45.636;11.752;2024-02-16T01:39:58;6.40;99.90
78054;DHT22;67726;45.636;11.752;2024-02-16T01:42:24;6.20;99.90
78054;DHT22;67726;45.636;11.752;2024-02-16T01:44:50;6.00;99.90
78054;DHT22;67726;45.636;11.752;2024-02-16T01:47:16;6.00;99.90
78054;DHT22;67726;45.636;11.752;2024-02-16T01:49:44;6.00;99.90
78054;DHT22;67726;45.636;11.752;2024-02-16T01:52:10;6.00;99.90
78054;DHT22;67726;45.636;11.752;2024-02-16T01:54:36;6.00;99.90
78054;DHT22;67726;45.636;11.752;2024-02-16T01:57:03;5.90;99.90
78054;DHT22;67726;45.636;11.752;2024-02-16T01:59:31;5.70;99.90
78054;DHT22;67726;45.636;11.752;2024-02-16T02:01:59;5.80;99.90
78054;DHT22;67726;45.636;11.752;2024-02-16T02:04:25;5.70;99.90
78054;DHT22;67726;45.636;11.752;2024-02-16T02:06:51;5.60;99.90
78054;DHT22;67726;45.636;11.752;2024-02-16T02:09:17;5.70;99.90
78054;DHT22;67726;45.636;11.752;2024-02-16T02:11:43;5.60;99.90
78054;DHT22;67726;45.636;11.752;2024-02-16T02:14:09;5.60;99.90
78054;DHT22;67726;45.636;11.752;2024-02-16T02:16:35;5.60;99.90
78054;DHT22;67726;45.636;11.752;2024-02-16T02:19:02;5.50;99.90
78054;DHT22;67726;45.636;11.752;2024-02-16T02:21:28;5.60;99.90
78054;DHT22;67726;45.636;11.752;2024-02-16T02:23:54;5.60;99.90
78054;DHT22;67726;45.636;11.752;2024-02-16T02:26:20;5.60;99.90
78054;DHT22;67726;45.636;11.752;2024-02-16T02:28:46;5.80;99.90
78054;DHT22;67726;45.636;11.752;2024-02-16T02:31:12;5.60;99.90
78054;DHT22;67726;45.636;11.752;2024-02-16T02:33:38;5.60;99.90
78054;DHT22;67726;45.636;11.752;2024-02-16T02:36:04;5.70;99.90
78054;DHT22;67726;45.636;11.752;2024-02-16T02:38:30;5.50;99.90
78054;DHT22;67726;45.636;11.752;2024-02-16T02:40:56;5.70;99.90
78054;DHT22;67726;45.636;11.752;2024-02-16T02:43:22;5.40;99.90
78054;DHT22;67726;45.636;11.752;2024-02-16T02:45:48;5.50;99.90
78054;DHT22;67726;45.636;11.752;2024-02-16T02:48:14;5.50;99.90
78054;DHT22;67726;45.636;11.752;2024-02-16T02:50:40;5.50;99.90
78054;DHT22;67726;45.636;11.752;2024-02-16T02:53:05;5.20;99.90
78054;DHT22;67726;45.636;11.752;2024-02-16T02:55:31;5.20;99.90
78054;DHT22;67726;45.636;11.752;2024-02-16T02:57:57;5.30;99.90
78054;DHT22;67726;45.636;11.752;2024-02-16T03:00:23;5.40;99.90
78054;DHT22;67726;45.636;11.752;2024-02-16T03:02:49;5.20;99.90
78054;DHT22;67726;45.636;11.752;2024-02-16T03:05:15;5.20;99.90
78054;DHT22;67726;45.636;11.752;2024-02-16T03:07:40;5.10;99.90
78054;DHT22;67726;45.636;11.752;2024-02-16T03:10:07;5.20;99.90
78054;DHT22;67726;45.636;11.752;2024-02-16T03:12:35;5.30;99.90
78054;DHT22;67726;45.636;11.752;2024-02-16T03:15:00;5.20;99.90
78054;DHT22;67726;45.636;11.752;2024-02-16T03:17:26;5.20;99.90
78054;DHT22;67726;45.636;11.752;2024-02-16T03:19:52;5.30;99.90
78054;DHT22;67726;45.636;11.752;2024-02-16T03:22:17;5.10;99.90
78054;DHT22;67726;45.636;11.752;2024-02-16T03:24:43;5.00;99.90
78054;DHT22;67726;45.636;11.752;2024-02-16T03:27:11;5.10;99.90
78054;DHT22;67726;45.636;11.752;2024-02-16T03:29:37;4.80;99.90
78054;DHT22;67726;45.636;11.752;2024-02-16T03:32:02;5.00;99.90
78054;DHT22;67726;45.636;11.752;2024-02-16T03:34:28;5.00;99.90
78054;DHT22;67726;45.636;11.752;2024-02-16T03:36:54;5.00;99.90
78054;DHT22;67726;45.636;11.752;2024-02-16T03:39:19;4.90;99.90
78054;DHT22;67726;45.636;11.752;2024-02-16T03:41:45;4.90;99.90
78054;DHT22;67726;45.636;11.752;2024-02-16T03:44:14;4.90;99.90
78054;DHT22;67726;45.636;11.752;2024-02-16T03:46:41;4.70;99.90
78054;DHT22;67726;45.636;11.752;2024-02-16T03:49:07;4.70;99.90
78054;DHT22;67726;45.636;11.752;2024-02-16T03:51:33;4.60;99.90
78054;DHT22;67726;45.636;11.752;2024-02-16T03:53:58;4.60;99.90
78054;DHT22;67726;45.636;11.752;2024-02-16T03:56:24;4.50;99.90
78054;DHT22;67726;45.636;11.752;2024-02-16T03:58:50;4.60;99.90
78054;DHT22;67726;45.636;11.752;2024-02-16T04:01:16;4.60;99.90
78054;DHT22;67726;45.636;11.752;2024-02-16T04:03:41;4.10;99.90
78054;DHT22;67726;45.636;11.752;2024-02-16T04:06:08;4.40;99.90
78054;DHT22;67726;45.636;11.752;2024-02-16T04:08:33;4.40;99.90
78054;DHT22;67726;45.636;11.752;2024-02-16T04:10:59;4.40;99.90
78054;DHT22;67726;45.636;11.752;2024-02-16T04:13:25;4.10;99.90
78054;DHT22;67726;45.636;11.752;2024-02-16T04:15:50;4.20;99.90
78054;DHT22;67726;45.636;11.752;2024-02-16T04:18:16;4.20;99.90
78054;DHT22;67726;45.636;11.752;2024-02-16T04:20:41;4.20;99.90
78054;DHT22;67726;45.636;11.752;2024-02-16T04:23:07;4.20;99.90
78054;DHT22;67726;45.636;11.752;2024-02-16T04:25:33;4.10;99.90
78054;DHT22;67726;45.636;11.752;2024-02-16T04:27:59;4.10;99.90
78054;DHT22;67726;45.636;11.752;2024-02-16T04:30:25;4.10;99.90
78054;DHT22;67726;45.636;11.752;2024-02-16T04:32:50;3.90;99.90
78054;DHT22;67726;45.636;11.752;2024-02-16T04:35:16;4.00;99.90
78054;DHT22;67726;45.636;11.752;2024-02-16T04:37:42;4.20;99.90
78054;DHT22;67726;45.636;11.752;2024-02-16T04:40:08;4.20;99.90
78054;DHT22;67726;45.636;11.752;2024-02-16T04:42:34;4.30;99.90
78054;DHT22;67726;45.636;11.752;2024-02-16T04:44:59;4.10;99.90
78054;DHT22;67726;45.636;11.752;2024-02-16T04:47:25;4.20;99.90
78054;DHT22;67726;45.636;11.752;2024-02-16T04:49:52;4.20;99.90
78054;DHT22;67726;45.636;11.752;2024-02-16T04:52:17;4.10;99.90
78054;DHT22;67726;45.636;11.752;2024-02-16T04:54:43;4.20;99.90
78054;DHT22;67726;45.636;11.752;2024-02-16T04:57:09;4.10;99.90
78054;DHT22;67726;45.636;11.752;2024-02-16T04:59:34;4.30;99.90
78054;DHT22;67726;45.636;11.752;2024-02-16T05:02:00;4.00;99.90
78054;DHT22;67726;45.636;11.752;2024-02-16T05:04:26;4.20;99.90
78054;DHT22;67726;45.636;11.752;2024-02-16T05:06:51;4.10;99.90
78054;DHT22;67726;45.636;11.752;2024-02-16T05:09:18;4.20;99.90
78054;DHT22;67726;45.636;11.752;2024-02-16T05:11:45;4.00;99.90
78054;DHT22;67726;45.636;11.752;2024-02-16T05:14:11;3.80;99.90
78054;DHT22;67726;45.636;11.752;2024-02-16T05:16:44;4.00;99.90
78054;DHT22;67726;45.636;11.752;2024-02-16T05:19:10;4.00;99.90
78054;DHT22;67726;45.636;11.752;2024-02-16T05:21:35;3.90;99.90
78054;DHT22;67726;45.636;11.752;2024-02-16T05:24:01;3.90;99.90
78054;DHT22;67726;45.636;11.752;2024-02-16T05:26:27;3.80;99.90
78054;DHT22;67726;45.636;11.752;2024-02-16T05:28:53;3.70;99.90
78054;DHT22;67726;45.636;11.752;2024-02-16T05:31:18;3.90;99.90
78054;DHT22;67726;45.636;11.752;2024-02-16T05:33:47;4.00;99.90
78054;DHT22;67726;45.636;11.752;2024-02-16T05:36:22;4.10;99.90
78054;DHT22;67726;45.636;11.752;2024-02-16T05:38:52;3.90;99.90
78054;DHT22;67726;45.636;11.752;2024-02-16T05:41:20;4.10;99.90
78054;DHT22;67726;45.636;11.752;2024-02-16T05:43:45;4.00;99.90
78054;DHT22;67726;45.636;11.752;2024-02-16T05:46:15;4.00;99.90
78054;DHT22;67726;45.636;11.752;2024-02-16T05:48:42;3.90;99.90
78054;DHT22;67726;45.636;11.752;2024-02-16T05:51:08;3.90;99.90
78054;DHT22;67726;45.636;11.752;2024-02-16T05:53:34;3.70;99.90
78054;DHT22;67726;45.636;11.752;2024-02-16T05:56:00;3.70;99.90
78054;DHT22;67726;45.636;11.752;2024-02-16T05:58:26;3.80;99.90
78054;DHT22;67726;45.636;11.752;2024-02-16T06:00:54;3.50;99.90
78054;DHT22;67726;45.636;11.752;2024-02-16T06:03:20;3.70;99.90
78054;DHT22;67726;45.636;11.752;2024-02-16T06:05:46;3.70;99.90
78054;DHT22;67726;45.636;11.752;2024-02-16T06:08:12;3.70;99.90
78054;DHT22;67726;45.636;11.752;2024-02-16T06:10:38;3.70;99.90
78054;DHT22;67726;45.636;11.752;2024-02-16T06:13:04;3.70;99.90
78054;DHT22;67726;45.636;11.752;2024-02-16T06:15:30;3.60;99.90
78054;DHT22;67726;45.636;11.752;2024-02-16T06:17:56;3.50;99.90
78054;DHT22;67726;45.636;11.752;2024-02-16T06:20:21;3.60;99.90
78054;DHT22;67726;45.636;11.752;2024-02-16T06:22:47;3.60;99.90
78054;DHT22;67726;45.636;11.752;2024-02-16T06:25:14;3.70;99.90
78054;DHT22;67726;45.636;11.752;2024-02-16T06:27:40;3.60;99.90
78054;DHT22;67726;45.636;11.752;2024-02-16T06:30:07;3.80;99.90
78054;DHT22;67726;45.636;11.752;2024-02-16T06:32:36;3.70;99.90
78054;DHT22;67726;45.636;11.752;2024-02-16T06:35:01;3.80;99.90
78054;DHT22;67726;45.636;11.752;2024-02-16T06:37:27;3.70;99.90
78054;DHT22;67726;45.636;11.752;2024-02-16T06:39:53;3.90;99.90
78054;DHT22;67726;45.636;11.752;2024-02-16T06:42:18;3.80;99.90
78054;DHT22;67726;45.636;11.752;2024-02-16T06:44:44;3.80;99.90
78054;DHT22;67726;45.636;11.752;2024-02-16T06:47:09;4.10;99.90
78054;DHT22;67726;45.636;11.752;2024-02-16T06:49:35;3.80;99.90
78054;DHT22;67726;45.636;11.752;2024-02-16T06:52:01;4.00;99.90
78054;DHT22;67726;45.636;11.752;2024-02-16T06:54:26;4.10;99.90
78054;DHT22;67726;45.636;11.752;2024-02-16T06:56:52;4.10;99.90
78054;DHT22;67726;45.636;11.752;2024-02-16T06:59:18;4.40;99.90
78054;DHT22;67726;45.636;11.752;2024-02-16T07:01:44;4.60;99.90
78054;DHT22;67726;45.636;11.752;2024-02-16T07:04:10;4.80;99.90
78054;DHT22;67726;45.636;11.752;2024-02-16T07:06:36;5.00;99.90
78054;DHT22;67726;45.636;11.752;2024-02-16T07:09:01;5.20;99.90
78054;DHT22;67726;45.636;11.752;2024-02-16T07:11:30;5.50;99.90
78054;DHT22;67726;45.636;11.752;2024-02-16T07:13:56;5.40;99.90
78054;DHT22;67726;45.636;11.752;2024-02-16T07:16:28;5.80;99.90
78054;DHT22;67726;45.636;11.752;2024-02-16T07:18:57;6.10;99.90
78054;DHT22;67726;45.636;11.752;2024-02-16T07:21:23;6.20;99.90
78054;DHT22;67726;45.636;11.752;2024-02-16T07:23:52;6.40;99.90
78054;DHT22;67726;45.636;11.752;2024-02-16T07:26:18;6.60;99.90
78054;DHT22;67726;45.636;11.752;2024-02-16T07:28:43;6.90;99.90
78054;DHT22;67726;45.636;11.752;2024-02-16T07:31:09;7.10;99.90
78054;DHT22;67726;45.636;11.752;2024-02-16T07:33:36;7.30;99.90
78054;DHT22;67726;45.636;11.752;2024-02-16T07:36:02;7.80;99.90
78054;DHT22;67726;45.636;11.752;2024-02-16T07:38:28;8.10;99.20
78054;DHT22;67726;45.636;11.752;2024-02-16T07:40:54;8.40;98.60
78054;DHT22;67726;45.636;11.752;2024-02-16T07:43:20;8.70;99.90
78054;DHT22;67726;45.636;11.752;2024-02-16T07:45:47;9.10;99.90
78054;DHT22;67726;45.636;11.752;2024-02-16T07:48:13;9.40;98.20
78054;DHT22;67726;45.636;11.752;2024-02-16T07:50:39;9.60;94.30
78054;DHT22;67726;45.636;11.752;2024-02-16T07:53:04;9.80;98.50
78054;DHT22;67726;45.636;11.752;2024-02-16T07:55:30;10.00;96.80
78054;DHT22;67726;45.636;11.752;2024-02-16T07:57:56;10.30;98.90
78054;DHT22;67726;45.636;11.752;2024-02-16T08:00:21;10.70;98.90
78054;DHT22;67726;45.636;11.752;2024-02-16T08:02:47;11.10;97.50
78054;DHT22;67726;45.636;11.752;2024-02-16T08:05:13;11.40;96.80
78054;DHT22;67726;45.636;11.752;2024-02-16T08:07:40;11.80;94.90
78054;DHT22;67726;45.636;11.752;2024-02-16T08:10:09;11.80;92.30
78054;DHT22;67726;45.636;11.752;2024-02-16T08:12:35;12.20;92.10
78054;DHT22;67726;45.636;11.752;2024-02-16T08:15:05;12.40;93.60
78054;DHT22;67726;45.636;11.752;2024-02-16T08:17:33;12.40;87.80
78054;DHT22;67726;45.636;11.752;2024-02-16T08:19:59;12.40;87.20
78054;DHT22;67726;45.636;11.752;2024-02-16T08:22:25;12.70;90.00
78054;DHT22;67726;45.636;11.752;2024-02-16T08:24:51;12.90;91.10
78054;DHT22;67726;45.636;11.752;2024-02-16T08:27:17;13.20;88.80
78054;DHT22;67726;45.636;11.752;2024-02-16T08:29:44;13.50;88.40
78054;DHT22;67726;45.636;11.752;2024-02-16T08:32:10;13.70;89.90
78054;DHT22;67726;45.636;11.752;2024-02-16T08:34:36;13.90;89.40
78054;DHT22;67726;45.636;11.752;2024-02-16T08:37:03;14.20;87.60
78054;DHT22;67726;45.636;11.752;2024-02-16T08:39:30;14.20;88.00
78054;DHT22;67726;45.636;11.752;2024-02-16T08:41:56;14.40;82.70
78054;DHT22;67726;45.636;11.752;2024-02-16T08:44:22;14.50;80.20
78054;DHT22;67726;45.636;11.752;2024-02-16T08:46:48;14.60;85.30
78054;DHT22;67726;45.636;11.752;2024-02-16T08:49:15;15.00;83.90
78054;DHT22;67726;45.636;11.752;2024-02-16T08:51:41;15.50;82.60
78054;DHT22;67726;45.636;11.752;2024-02-16T08:54:07;16.00;82.70
78054;DHT22;67726;45.636;11.752;2024-02-16T08:56:33;16.60;79.30
78054;DHT22;67726;45.636;11.752;2024-02-16T08:59:01;17.10;80.90
78054;DHT22;67726;45.636;11.752;2024-02-16T09:01:33;17.50;74.10
78054;DHT22;67726;45.636;11.752;2024-02-16T09:03:59;17.10;75.60
78054;DHT22;67726;45.636;11.752;2024-02-16T09:06:25;17.20;77.30
78054;DHT22;67726;45.636;11.752;2024-02-16T09:08:51;17.40;76.80
78054;DHT22;67726;45.636;11.752;2024-02-16T09:11:17;17.90;73.10
78054;DHT22;67726;45.636;11.752;2024-02-16T09:13:43;18.10;73.30
78054;DHT22;67726;45.636;11.752;2024-02-16T09:16:09;18.20;72.60
78054;DHT22;67726;45.636;11.752;2024-02-16T09:18:35;18.30;71.30
78054;DHT22;67726;45.636;11.752;2024-02-16T09:21:03;18.00;71.40
78054;DHT22;67726;45.636;11.752;2024-02-16T09:23:29;17.00;68.30
78054;DHT22;67726;45.636;11.752;2024-02-16T09:25:55;16.70;74.50
78054;DHT22;67726;45.636;11.752;2024-02-16T09:28:21;16.60;76.30
78054;DHT22;67726;45.636;11.752;2024-02-16T09:30:47;16.50;73.80
78054;DHT22;67726;45.636;11.752;2024-02-16T09:33:13;16.20;76.20
78054;DHT22;67726;45.636;11.752;2024-02-16T09:35:41;16.20;75.20
78054;DHT22;67726;45.636;11.752;2024-02-16T09:38:07;15.70;78.00
78054;DHT22;67726;45.636;11.752;2024-02-16T09:40:36;16.00;79.10
78054;DHT22;67726;45.636;11.752;2024-02-16T09:43:01;16.40;80.10
78054;DHT22;67726;45.636;11.752;2024-02-16T09:45:28;16.70;78.90
78054;DHT22;67726;45.636;11.752;2024-02-16T09:47:54;16.90;77.20
78054;DHT22;67726;45.636;11.752;2024-02-16T09:50:20;16.80;75.40
78054;DHT22;67726;45.636;11.752;2024-02-16T09:52:48;16.70;74.30
78054;DHT22;67726;45.636;11.752;2024-02-16T09:55:14;16.60;77.20
78054;DHT22;67726;45.636;11.752;2024-02-16T09:57:41;17.00;78.80
78054;DHT22;67726;45.636;11.752;2024-02-16T10:00:07;17.40;76.20
78054;DHT22;67726;45.636;11.752;2024-02-16T10:02:44;18.00;77.80
78054;DHT22;67726;45.636;11.752;2024-02-16T10:05:17;18.20;75.80
78054;DHT22;67726;45.636;11.752;2024-02-16T10:07:44;18.40;76.30
78054;DHT22;67726;45.636;11.752;2024-02-16T10:10:27;18.50;70.90
78054;DHT22;67726;45.636;11.752;2024-02-16T10:13:02;18.50;67.60
78054;DHT22;67726;45.636;11.752;2024-02-16T10:15:29;18.60;69.40
78054;DHT22;67726;45.636;11.752;2024-02-16T10:20:24;16.80;76.50
78054;DHT22;67726;45.636;11.752;2024-02-16T10:23:01;17.00;76.90
78054;DHT22;67726;45.636;11.752;2024-02-16T10:25:28;17.00;77.70
78054;DHT22;67726;45.636;11.752;2024-02-16T10:27:54;17.30;77.10
78054;DHT22;67726;45.636;11.752;2024-02-16T10:30:22;17.70;77.90
78054;DHT22;67726;45.636;11.752;2024-02-16T10:32:50;17.90;71.60
78054;DHT22;67726;45.636;11.752;2024-02-16T10:35:16;18.30;70.90
78054;DHT22;67726;45.636;11.752;2024-02-16T10:37:44;18.70;70.70
78054;DHT22;67726;45.636;11.752;2024-02-16T10:40:11;19.10;72.90
78054;DHT22;67726;45.636;11.752;2024-02-16T10:42:39;19.30;64.00
78054;DHT22;67726;45.636;11.752;2024-02-16T10:45:06;19.50;65.40
78054;DHT22;67726;45.636;11.752;2024-02-16T10:47:32;19.40;64.90
78054;DHT22;67726;45.636;11.752;2024-02-16T10:49:57;19.70;66.70
78054;DHT22;67726;45.636;11.752;2024-02-16T10:52:23;19.80;63.00
78054;DHT22;67726;45.636;11.752;2024-02-16T10:54:50;19.00;65.50
78054;DHT22;67726;45.636;11.752;2024-02-16T10:57:16;18.60;67.10
78054;DHT22;67726;45.636;11.752;2024-02-16T10:59:43;18.90;66.90
78054;DHT22;67726;45.636;11.752;2024-02-16T11:02:10;19.20;67.50
78054;DHT22;67726;45.636;11.752;2024-02-16T11:04:37;19.50;63.10
78054;DHT22;67726;45.636;11.752;2024-02-16T11:07:15;19.40;63.40
78054;DHT22;67726;45.636;11.752;2024-02-16T11:09:41;18.70;65.30
78054;DHT22;67726;45.636;11.752;2024-02-16T11:12:07;18.80;65.90
78054;DHT22;67726;45.636;11.752;2024-02-16T11:14:47;18.90;66.40
78054;DHT22;67726;45.636;11.752;2024-02-16T11:17:22;18.90;66.40
78054;DHT22;67726;45.636;11.752;2024-02-16T11:19:49;18.90;65.80
78054;DHT22;67726;45.636;11.752;2024-02-16T11:22:19;18.50;66.00
78054;DHT22;67726;45.636;11.752;2024-02-16T11:24:53;18.40;67.60
78054;DHT22;67726;45.636;11.752;2024-02-16T11:27:19;18.10;68.50
78054;DHT22;67726;45.636;11.752;2024-02-16T11:29:46;17.90;68.30
78054;DHT22;67726;45.636;11.752;2024-02-16T11:32:12;17.70;71.40
78054;DHT22;67726;45.636;11.752;2024-02-16T11:34:37;18.20;67.00
78054;DHT22;67726;45.636;11.752;2024-02-16T11:37:04;17.90;68.90
78054;DHT22;67726;45.636;11.752;2024-02-16T11:39:33;18.20;65.90
78054;DHT22;67726;45.636;11.752;2024-02-16T11:42:06;17.60;70.00
78054;DHT22;67726;45.636;11.752;2024-02-16T11:44:35;17.90;70.00
78054;DHT22;67726;45.636;11.752;2024-02-16T11:47:02;17.80;71.50
78054;DHT22;67726;45.636;11.752;2024-02-16T11:49:31;17.90;72.70
78054;DHT22;67726;45.636;11.752;2024-02-16T11:51:59;18.50;72.40
78054;DHT22;67726;45.636;11.752;2024-02-16T11:54:25;18.90;67.30
78054;DHT22;67726;45.636;11.752;2024-02-16T11:56:51;18.90;68.40
78054;DHT22;67726;45.636;11.752;2024-02-16T11:59:18;18.70;69.60
78054;DHT22;67726;45.636;11.752;2024-02-16T12:01:58;19.10;69.20
78054;DHT22;67726;45.636;11.752;2024-02-16T12:06:58;19.30;67.80
78054;DHT22;67726;45.636;11.752;2024-02-16T12:09:25;19.40;66.30
78054;DHT22;67726;45.636;11.752;2024-02-16T12:11:55;19.80;64.90
78054;DHT22;67726;45.636;11.752;2024-02-16T12:14:22;19.90;61.80
78054;DHT22;67726;45.636;11.752;2024-02-16T12:16:49;20.10;63.10
78054;DHT22;67726;45.636;11.752;2024-02-16T12:19:15;20.20;62.80
78054;DHT22;67726;45.636;11.752;2024-02-16T12:21:42;20.40;62.60
78054;DHT22;67726;45.636;11.752;2024-02-16T12:24:07;20.30;63.90
78054;DHT22;67726;45.636;11.752;2024-02-16T12:26:33;20.90;62.30
78054;DHT22;67726;45.636;11.752;2024-02-16T12:28:59;21.40;61.70
78054;DHT22;67726;45.636;11.752;2024-02-16T12:31:24;21.80;55.80
78054;DHT22;67726;45.636;11.752;2024-02-16T12:33:52;22.10;57.20
78054;DHT22;67726;45.636;11.752;2024-02-16T12:36:18;22.20;54.00
78054;DHT22;67726;45.636;11.752;2024-02-16T12:38:43;21.90;53.40
78054;DHT22;67726;45.636;11.752;2024-02-16T12:41:10;22.10;56.00
78054;DHT22;67726;45.636;11.752;2024-02-16T12:43:35;21.50;54.50
78054;DHT22;67726;45.636;11.752;2024-02-16T12:46:01;21.70;53.70
78054;DHT22;67726;45.636;11.752;2024-02-16T12:48:29;22.00;53.70
78054;DHT22;67726;45.636;11.752;2024-02-16T12:50:55;21.80;51.10
78054;DHT22;67726;45.636;11.752;2024-02-16T12:53:22;21.40;53.80
78054;DHT22;67726;45.636;11.752;2024-02-16T12:55:50;21.70;53.50
78054;DHT22;67726;45.636;11.752;2024-02-16T12:58:16;22.30;51.40
78054;DHT22;67726;45.636;11.752;2024-02-16T13:00:41;22.30;47.50
78054;DHT22;67726;45.636;11.752;2024-02-16T13:03:07;22.00;48.50
78054;DHT22;67726;45.636;11.752;2024-02-16T13:05:33;22.30;50.20
78054;DHT22;67726;45.636;11.752;2024-02-16T13:07:59;22.60;49.80
78054;DHT22;67726;45.636;11.752;2024-02-16T13:10:25;23.00;50.70
78054;DHT22;67726;45.636;11.752;2024-02-16T13:12:50;23.00;49.70
78054;DHT22;67726;45.636;11.752;2024-02-16T13:15:16;22.80;48.40
78054;DHT22;67726;45.636;11.752;2024-02-16T13:17:42;22.50;49.10
78054;DHT22;67726;45.636;11.752;2024-02-16T13:20:08;22.30;50.10
78054;DHT22;67726;45.636;11.752;2024-02-16T13:22:38;22.00;49.60
78054;DHT22;67726;45.636;11.752;2024-02-16T13:25:04;21.70;51.50
78054;DHT22;67726;45.636;11.752;2024-02-16T13:27:32;21.20;52.60
78054;DHT22;67726;45.636;11.752;2024-02-16T13:29:57;20.70;55.00
78054;DHT22;67726;45.636;11.752;2024-02-16T13:32:23;20.70;55.80
78054;DHT22;67726;45.636;11.752;2024-02-16T13:34:49;20.10;56.80
78054;DHT22;67726;45.636;11.752;2024-02-16T13:37:15;19.70;57.80
78054;DHT22;67726;45.636;11.752;2024-02-16T13:39:40;19.50;58.70
78054;DHT22;67726;45.636;11.752;2024-02-16T13:42:06;19.90;59.20
78054;DHT22;67726;45.636;11.752;2024-02-16T13:44:32;19.90;58.10
78054;DHT22;67726;45.636;11.752;2024-02-16T13:46:58;19.80;58.80
78054;DHT22;67726;45.636;11.752;2024-02-16T13:49:23;20.10;58.20
78054;DHT22;67726;45.636;11.752;2024-02-16T13:51:49;20.20;58.10
78054;DHT22;67726;45.636;11.752;2024-02-16T13:54:14;19.90;57.60
78054;DHT22;67726;45.636;11.752;2024-02-16T13:56:40;19.60;58.50
78054;DHT22;67726;45.636;11.752;2024-02-16T13:59:06;19.70;58.50
78054;DHT22;67726;45.636;11.752;2024-02-16T14:01:33;20.00;58.30
78054;DHT22;67726;45.636;11.752;2024-02-16T14:04:00;20.20;58.80
78054;DHT22;67726;45.636;11.752;2024-02-16T14:06:26;20.30;58.80
78054;DHT22;67726;45.636;11.752;2024-02-16T14:08:52;20.60;57.80
78054;DHT22;67726;45.636;11.752;2024-02-16T14:11:18;20.50;57.60
78054;DHT22;67726;45.636;11.752;2024-02-16T14:13:44;20.60;57.80
78054;DHT22;67726;45.636;11.752;2024-02-16T14:16:10;20.80;57.30
78054;DHT22;67726;45.636;11.752;2024-02-16T14:18:36;20.90;56.70
78054;DHT22;67726;45.636;11.752;2024-02-16T14:21:03;20.40;56.80
78054;DHT22;67726;45.636;11.752;2024-02-16T14:23:32;20.70;57.20
78054;DHT22;67726;45.636;11.752;2024-02-16T14:25:58;21.00;53.60
78054;DHT22;67726;45.636;11.752;2024-02-16T14:28:24;20.80;54.30
78054;DHT22;67726;45.636;11.752;2024-02-16T14:30:49;20.70;55.50
78054;DHT22;67726;45.636;11.752;2024-02-16T14:33:16;20.50;54.60
78054;DHT22;67726;45.636;11.752;2024-02-16T14:35:43;20.30;56.10
78054;DHT22;67726;45.636;11.752;2024-02-16T14:38:08;20.80;56.10
78054;DHT22;67726;45.636;11.752;2024-02-16T14:40:34;21.00;51.00
78054;DHT22;67726;45.636;11.752;2024-02-16T14:43:01;21.40;52.90
78054;DHT22;67726;45.636;11.752;2024-02-16T14:45:27;21.30;51.40
78054;DHT22;67726;45.636;11.752;2024-02-16T14:47:53;21.50;52.50
78054;DHT22;67726;45.636;11.752;2024-02-16T14:50:18;21.60;52.20
78054;DHT22;67726;45.636;11.752;2024-02-16T14:52:44;21.70;52.70
78054;DHT22;67726;45.636;11.752;2024-02-16T14:55:11;21.30;51.40
78054;DHT22;67726;45.636;11.752;2024-02-16T14:57:39;20.80;54.00
78054;DHT22;67726;45.636;11.752;2024-02-16T15:00:09;20.10;54.90
78054;DHT22;67726;45.636;11.752;2024-02-16T15:02:36;19.80;56.30
78054;DHT22;67726;45.636;11.752;2024-02-16T15:05:06;19.50;56.40
78054;DHT22;67726;45.636;11.752;2024-02-16T15:07:33;19.30;57.60
78054;DHT22;67726;45.636;11.752;2024-02-16T15:09:58;18.90;60.00
78054;DHT22;67726;45.636;11.752;2024-02-16T15:12:24;18.50;61.70
78054;DHT22;67726;45.636;11.752;2024-02-16T15:14:50;18.20;63.90
78054;DHT22;67726;45.636;11.752;2024-02-16T15:17:16;17.70;64.90
78054;DHT22;67726;45.636;11.752;2024-02-16T15:19:43;17.60;65.90
78054;DHT22;67726;45.636;11.752;2024-02-16T15:22:08;17.50;65.90